sensor_id;sensor_type;location;lat;lon;timestamp;P1;durP1;ratioP1;P2;durP2;ratioP2
20557;SDS011;10437;48.156;11.530;2023-08-06T00:01:53;6.70;;;4.43;;
20557;SDS011;10437;48.156;11.530;2023-08-06T00:04:21;7.05;;;4.10;;
20557;SDS011;10437;48.156;11.530;2023-08-06T00:06:48;5.68;;;3.72;;
20557;SDS011;10437;48.156;11.530;2023-08-06T00:09:15;5.53;;;3.72;;
20557;SDS011;10437;48.156;11.530;2023-08-06T00:11:42;6.90;;;3.95;;
20557;SDS011;10437;48.156;11.530;2023-08-06T00:14:11;5.80;;;3.55;;
20557;SDS011;10437;48.156;11.530;2023-08-06T00:16:40;8.65;;;3.38;;
20557;SDS011;10437;48.156;11.530;2023-08-06T00:19:06;8.73;;;3.75;;
20557;SDS011;10437;48.156;11.530;2023-08-06T00:21:34;6.72;;;3.33;;
20557;SDS011;10437;48.156;11.530;2023-08-06T00:24:01;6.10;;;3.60;;
20557;SDS011;10437;48.156;11.530;2023-08-06T00:26:28;6.55;;;3.42;;
20557;SDS011;10437;48.156;11.530;2023-08-06T00:28:56;6.40;;;3.47;;
20557;SDS011;10437;48.156;11.530;2023-08-06T00:31:23;4.95;;;3.13;;
20557;SDS011;10437;48.156;11.530;2023-08-06T00:33:50;5.57;;;3.42;;
20557;SDS011;10437;48.156;11.530;2023-08-06T00:36:17;4.88;;;3.40;;
20557;SDS011;10437;48.156;11.530;2023-08-06T00:38:45;5.90;;;3.45;;
20557;SDS011;10437;48.156;11.530;2023-08-06T00:41:12;4.55;;;3.15;;
20557;SDS011;10437;48.156;11.530;2023-08-06T00:43:39;4.63;;;3.15;;
20557;SDS011;10437;48.156;11.530;2023-08-06T00:46:06;4.55;;;3.42;;
20557;SDS011;10437;48.156;11.530;2023-08-06T00:48:34;5.78;;;3.10;;
20557;SDS011;10437;48.156;11.530;2023-08-06T00:51:01;6.15;;;3.10;;
20557;SDS011;10437;48.156;11.530;2023-08-06T00:53:28;5.47;;;3.05;;
20557;SDS011;10437;48.156;11.530;2023-08-06T00:55:57;6.30;;;2.70;;
20557;SDS011;10437;48.156;11.530;2023-08-06T00:58:24;4.13;;;3.20;;
20557;SDS011;10437;48.156;11.530;2023-08-06T01:00:51;5.32;;;3.13;;
20557;SDS011;10437;48.156;11.530;2023-08-06T01:03:19;5.13;;;3.20;;
20557;SDS011;10437;48.156;11.530;2023-08-06T01:05:46;4.35;;;2.75;;
20557;SDS011;10437;48.156;11.530;2023-08-06T01:08:16;4.82;;;3.28;;
20557;SDS011;10437;48.156;11.530;2023-08-06T01:10:56;4.10;;;2.95;;
20557;SDS011;10437;48.156;11.530;2023-08-06T01:13:37;5.75;;;2.85;;
20557;SDS011;10437;48.156;11.530;2023-08-06T01:16:08;4.90;;;2.80;;
20557;SDS011;10437;48.156;11.530;2023-08-06T01:18:36;3.97;;;2.63;;
20557;SDS011;10437;48.156;11.530;2023-08-06T01:21:05;5.40;;;3.10;;
20557;SDS011;10437;48.156;11.530;2023-08-06T01:23:32;5.32;;;3.17;;
20557;SDS011;10437;48.156;11.530;2023-08-06T01:26:01;3.92;;;2.78;;
20557;SDS011;10437;48.156;11.530;2023-08-06T01:28:33;4.18;;;2.58;;
20557;SDS011;10437;48.156;11.530;2023-08-06T01:31:07;6.60;;;3.50;;
20557;SDS011;10437;48.156;11.530;2023-08-06T01:33:38;6.53;;;3.60;;
20557;SDS011;10437;48.156;11.530;2023-08-06T01:36:13;6.72;;;3.65;;
20557;SDS011;10437;48.156;11.530;2023-08-06T01:38:43;5.25;;;3.58;;
20557;SDS011;10437;48.156;11.530;2023-08-06T01:41:10;6.35;;;3.65;;
20557;SDS011;10437;48.156;11.530;2023-08-06T01:43:37;7.82;;;3.88;;
20557;SDS011;10437;48.156;11.530;2023-08-06T01:46:04;5.60;;;3.63;;
20557;SDS011;10437;48.156;11.530;2023-08-06T01:48:31;6.32;;;3.53;;
20557;SDS011;10437;48.156;11.530;2023-08-06T01:50:59;6.68;;;3.58;;
20557;SDS011;10437;48.156;11.530;2023-08-06T01:53:28;4.60;;;3.53;;
20557;SDS011;10437;48.156;11.530;2023-08-06T01:55:55;6.38;;;3.80;;
20557;SDS011;10437;48.156;11.530;2023-08-06T01:58:22;8.35;;;4.03;;
20557;SDS011;10437;48.156;11.530;2023-08-06T02:00:49;7.65;;;3.40;;
20557;SDS011;10437;48.156;11.530;2023-08-06T02:03:16;5.30;;;3.90;;
20557;SDS011;10437;48.156;11.530;2023-08-06T02:05:43;5.32;;;3.25;;
20557;SDS011;10437;48.156;11.530;2023-08-06T02:08:11;6.28;;;3.65;;
20557;SDS011;10437;48.156;11.530;2023-08-06T02:10:39;5.68;;;3.50;;
20557;SDS011;10437;48.156;11.530;2023-08-06T02:13:06;4.78;;;3.20;;
20557;SDS011;10437;48.156;11.530;2023-08-06T02:15:34;4.43;;;3.00;;
20557;SDS011;10437;48.156;11.530;2023-08-06T02:18:01;3.25;;;2.95;;
20557;SDS011;10437;48.156;11.530;2023-08-06T02:20:28;4.95;;;3.00;;
20557;SDS011;10437;48.156;11.530;2023-08-06T02:22:55;4.20;;;3.03;;
20557;SDS011;10437;48.156;11.530;2023-08-06T02:25:22;3.65;;;2.67;;
20557;SDS011;10437;48.156;11.530;2023-08-06T02:27:50;4.68;;;2.75;;
20557;SDS011;10437;48.156;11.530;2023-08-06T02:30:17;6.57;;;3.03;;
20557;SDS011;10437;48.156;11.530;2023-08-06T02:32:44;3.53;;;2.50;;
20557;SDS011;10437;48.156;11.530;2023-08-06T02:35:12;5.20;;;2.88;;
20557;SDS011;10437;48.156;11.530;2023-08-06T02:37:39;3.03;;;2.25;;
20557;SDS011;10437;48.156;11.530;2023-08-06T02:40:06;5.07;;;2.90;;
20557;SDS011;10437;48.156;11.530;2023-08-06T02:42:34;5.40;;;2.50;;
20557;SDS011;10437;48.156;11.530;2023-08-06T02:45:03;3.13;;;2.58;;
20557;SDS011;10437;48.156;11.530;2023-08-06T02:47:30;3.83;;;2.67;;
20557;SDS011;10437;48.156;11.530;2023-08-06T02:49:58;3.78;;;2.42;;
20557;SDS011;10437;48.156;11.530;2023-08-06T02:52:25;4.20;;;2.50;;
20557;SDS011;10437;48.156;11.530;2023-08-06T02:54:52;6.03;;;2.35;;
20557;SDS011;10437;48.156;11.530;2023-08-06T02:57:19;3.33;;;2.20;;
20557;SDS011;10437;48.156;11.530;2023-08-06T02:59:46;3.17;;;2.40;;
20557;SDS011;10437;48.156;11.530;2023-08-06T03:02:14;3.60;;;2.40;;
20557;SDS011;10437;48.156;11.530;2023-08-06T03:04:41;2.97;;;2.28;;
20557;SDS011;10437;48.156;11.530;2023-08-06T03:07:08;3.47;;;2.30;;
20557;SDS011;10437;48.156;11.530;2023-08-06T03:09:36;3.55;;;2.00;;
20557;SDS011;10437;48.156;11.530;2023-08-06T03:12:03;3.38;;;2.45;;
20557;SDS011;10437;48.156;11.530;2023-08-06T03:14:30;5.00;;;2.10;;
20557;SDS011;10437;48.156;11.530;2023-08-06T03:16:57;4.90;;;2.22;;
20557;SDS011;10437;48.156;11.530;2023-08-06T03:19:26;3.58;;;2.50;;
20557;SDS011;10437;48.156;11.530;2023-08-06T03:21:52;5.20;;;2.35;;
20557;SDS011;10437;48.156;11.530;2023-08-06T03:24:19;3.50;;;2.40;;
20557;SDS011;10437;48.156;11.530;2023-08-06T03:26:47;4.47;;;2.42;;
20557;SDS011;10437;48.156;11.530;2023-08-06T03:29:14;3.60;;;2.30;;
20557;SDS011;10437;48.156;11.530;2023-08-06T03:31:41;2.80;;;1.80;;
20557;SDS011;10437;48.156;11.530;2023-08-06T03:34:08;4.57;;;2.08;;
20557;SDS011;10437;48.156;11.530;2023-08-06T03:36:36;7.22;;;2.35;;
20557;SDS011;10437;48.156;11.530;2023-08-06T03:39:03;4.20;;;2.25;;
20557;SDS011;10437;48.156;11.530;2023-08-06T03:41:30;3.97;;;2.17;;
20557;SDS011;10437;48.156;11.530;2023-08-06T03:43:58;2.97;;;1.85;;
20557;SDS011;10437;48.156;11.530;2023-08-06T03:46:25;2.95;;;1.90;;
20557;SDS011;10437;48.156;11.530;2023-08-06T03:48:53;2.45;;;2.00;;
20557;SDS011;10437;48.156;11.530;2023-08-06T03:51:20;5.20;;;2.30;;
20557;SDS011;10437;48.156;11.530;2023-08-06T03:53:48;2.75;;;2.10;;
20557;SDS011;10437;48.156;11.530;2023-08-06T03:56:15;4.65;;;2.25;;
20557;SDS011;10437;48.156;11.530;2023-08-06T03:58:42;2.22;;;1.85;;
20557;SDS011;10437;48.156;11.530;2023-08-06T04:01:09;3.38;;;2.22;;
20557;SDS011;10437;48.156;11.530;2023-08-06T04:03:37;3.40;;;2.00;;
20557;SDS011;10437;48.156;11.530;2023-08-06T04:06:04;3.33;;;2.20;;
20557;SDS011;10437;48.156;11.530;2023-08-06T04:08:31;3.30;;;2.00;;
20557;SDS011;10437;48.156;11.530;2023-08-06T04:10:59;2.50;;;1.77;;
20557;SDS011;10437;48.156;11.530;2023-08-06T04:13:26;5.05;;;1.98;;
20557;SDS011;10437;48.156;11.530;2023-08-06T04:15:53;5.93;;;2.17;;
20557;SDS011;10437;48.156;11.530;2023-08-06T04:18:21;2.88;;;1.80;;
20557;SDS011;10437;48.156;11.530;2023-08-06T04:20:48;3.03;;;2.05;;
20557;SDS011;10437;48.156;11.530;2023-08-06T04:23:17;3.42;;;2.00;;
20557;SDS011;10437;48.156;11.530;2023-08-06T04:25:44;4.25;;;2.00;;
20557;SDS011;10437;48.156;11.530;2023-08-06T04:28:13;2.65;;;1.92;;
20557;SDS011;10437;48.156;11.530;2023-08-06T04:30:39;4.63;;;1.92;;
20557;SDS011;10437;48.156;11.530;2023-08-06T04:33:07;4.88;;;1.83;;
20557;SDS011;10437;48.156;11.530;2023-08-06T04:35:34;5.03;;;1.80;;
20557;SDS011;10437;48.156;11.530;2023-08-06T04:38:01;2.30;;;1.58;;
20557;SDS011;10437;48.156;11.530;2023-08-06T04:40:28;3.58;;;1.80;;
20557;SDS011;10437;48.156;11.530;2023-08-06T04:42:55;3.65;;;1.80;;
20557;SDS011;10437;48.156;11.530;2023-08-06T04:45:24;2.45;;;1.88;;
20557;SDS011;10437;48.156;11.530;2023-08-06T04:47:50;5.05;;;1.80;;
20557;SDS011;10437;48.156;11.530;2023-08-06T04:50:17;6.25;;;2.45;;
20557;SDS011;10437;48.156;11.530;2023-08-06T04:52:45;5.35;;;2.00;;
20557;SDS011;10437;48.156;11.530;2023-08-06T04:55:12;3.97;;;1.92;;
20557;SDS011;10437;48.156;11.530;2023-08-06T04:57:39;3.67;;;1.80;;
20557;SDS011;10437;48.156;11.530;2023-08-06T05:00:06;5.38;;;2.13;;
20557;SDS011;10437;48.156;11.530;2023-08-06T05:02:35;3.28;;;1.67;;
20557;SDS011;10437;48.156;11.530;2023-08-06T05:05:04;3.08;;;1.70;;
20557;SDS011;10437;48.156;11.530;2023-08-06T05:07:31;3.00;;;1.85;;
20557;SDS011;10437;48.156;11.530;2023-08-06T05:09:58;3.08;;;2.00;;
20557;SDS011;10437;48.156;11.530;2023-08-06T05:12:25;2.97;;;1.77;;
20557;SDS011;10437;48.156;11.530;2023-08-06T05:14:52;4.30;;;1.90;;
20557;SDS011;10437;48.156;11.530;2023-08-06T05:17:19;3.95;;;1.80;;
20557;SDS011;10437;48.156;11.530;2023-08-06T05:19:49;3.95;;;1.80;;
20557;SDS011;10437;48.156;11.530;2023-08-06T05:22:16;3.20;;;1.77;;
20557;SDS011;10437;48.156;11.530;2023-08-06T05:24:43;3.20;;;1.73;;
20557;SDS011;10437;48.156;11.530;2023-08-06T05:27:10;2.88;;;1.70;;
20557;SDS011;10437;48.156;11.530;2023-08-06T05:29:37;2.58;;;1.65;;
20557;SDS011;10437;48.156;11.530;2023-08-06T05:32:05;3.80;;;1.80;;
20557;SDS011;10437;48.156;11.530;2023-08-06T05:34:32;3.30;;;1.40;;
20557;SDS011;10437;48.156;11.530;2023-08-06T05:37:00;3.55;;;1.70;;
20557;SDS011;10437;48.156;11.530;2023-08-06T05:39:27;3.60;;;1.70;;
20557;SDS011;10437;48.156;11.530;2023-08-06T05:41:54;2.22;;;1.50;;
20557;SDS011;10437;48.156;11.530;2023-08-06T05:44:22;5.50;;;1.98;;
20557;SDS011;10437;48.156;11.530;2023-08-06T05:46:49;2.72;;;1.60;;
20557;SDS011;10437;48.156;11.530;2023-08-06T05:49:18;4.72;;;1.80;;
20557;SDS011;10437;48.156;11.530;2023-08-06T05:51:45;2.70;;;1.52;;
20557;SDS011;10437;48.156;11.530;2023-08-06T05:54:14;5.05;;;1.70;;
20557;SDS011;10437;48.156;11.530;2023-08-06T05:56:41;3.00;;;1.60;;
20557;SDS011;10437;48.156;11.530;2023-08-06T05:59:08;2.30;;;1.50;;
20557;SDS011;10437;48.156;11.530;2023-08-06T06:01:35;2.78;;;1.50;;
20557;SDS011;10437;48.156;11.530;2023-08-06T06:04:03;3.47;;;1.92;;
20557;SDS011;10437;48.156;11.530;2023-08-06T06:06:30;2.65;;;1.70;;
20557;SDS011;10437;48.156;11.530;2023-08-06T06:08:57;3.22;;;1.63;;
20557;SDS011;10437;48.156;11.530;2023-08-06T06:11:26;3.42;;;1.77;;
20557;SDS011;10437;48.156;11.530;2023-08-06T06:13:52;2.80;;;1.70;;
20557;SDS011;10437;48.156;11.530;2023-08-06T06:16:20;2.60;;;1.65;;
20557;SDS011;10437;48.156;11.530;2023-08-06T06:18:47;3.30;;;1.60;;
20557;SDS011;10437;48.156;11.530;2023-08-06T06:21:14;2.47;;;1.55;;
20557;SDS011;10437;48.156;11.530;2023-08-06T06:23:41;2.15;;;1.40;;
20557;SDS011;10437;48.156;11.530;2023-08-06T06:26:08;3.13;;;1.58;;
20557;SDS011;10437;48.156;11.530;2023-08-06T06:28:37;3.17;;;1.40;;
20557;SDS011;10437;48.156;11.530;2023-08-06T06:31:04;2.00;;;1.50;;
20557;SDS011;10437;48.156;11.530;2023-08-06T06:33:31;2.45;;;1.42;;
20557;SDS011;10437;48.156;11.530;2023-08-06T06:35:58;2.20;;;1.35;;
20557;SDS011;10437;48.156;11.530;2023-08-06T06:38:25;4.30;;;1.40;;
20557;SDS011;10437;48.156;11.530;2023-08-06T06:40:55;3.53;;;1.10;;
20557;SDS011;10437;48.156;11.530;2023-08-06T06:43:23;1.98;;;1.25;;
20557;SDS011;10437;48.156;11.530;2023-08-06T06:45:53;4.07;;;1.45;;
20557;SDS011;10437;48.156;11.530;2023-08-06T06:48:23;2.75;;;1.27;;
20557;SDS011;10437;48.156;11.530;2023-08-06T06:50:50;2.05;;;1.15;;
20557;SDS011;10437;48.156;11.530;2023-08-06T06:53:17;2.60;;;1.25;;
20557;SDS011;10437;48.156;11.530;2023-08-06T06:55:44;2.95;;;1.13;;
20557;SDS011;10437;48.156;11.530;2023-08-06T06:58:14;2.80;;;1.17;;
20557;SDS011;10437;48.156;11.530;2023-08-06T07:00:41;3.88;;;1.30;;
20557;SDS011;10437;48.156;11.530;2023-08-06T07:03:09;1.35;;;1.05;;
20557;SDS011;10437;48.156;11.530;2023-08-06T07:05:36;1.58;;;1.00;;
20557;SDS011;10437;48.156;11.530;2023-08-06T07:08:04;1.90;;;1.08;;
20557;SDS011;10437;48.156;11.530;2023-08-06T07:10:31;2.58;;;1.20;;
20557;SDS011;10437;48.156;11.530;2023-08-06T07:12:58;1.23;;;0.88;;
20557;SDS011;10437;48.156;11.530;2023-08-06T07:15:25;0.95;;;0.70;;
20557;SDS011;10437;48.156;11.530;2023-08-06T07:17:52;1.80;;;0.75;;
20557;SDS011;10437;48.156;11.530;2023-08-06T07:20:21;1.13;;;0.60;;
20557;SDS011;10437;48.156;11.530;2023-08-06T07:22:48;5.32;;;1.02;;
20557;SDS011;10437;48.156;11.530;2023-08-06T07:25:16;1.45;;;0.70;;
20557;SDS011;10437;48.156;11.530;2023-08-06T07:27:43;0.68;;;0.55;;
20557;SDS011;10437;48.156;11.530;2023-08-06T07:30:10;3.63;;;0.77;;
20557;SDS011;10437;48.156;11.530;2023-08-06T07:32:37;2.15;;;1.13;;
20557;SDS011;10437;48.156;11.530;2023-08-06T07:35:04;1.98;;;0.90;;
20557;SDS011;10437;48.156;11.530;2023-08-06T07:37:34;1.88;;;0.60;;
20557;SDS011;10437;48.156;11.530;2023-08-06T07:40:01;2.08;;;0.60;;
20557;SDS011;10437;48.156;11.530;2023-08-06T07:42:29;2.60;;;0.90;;
20557;SDS011;10437;48.156;11.530;2023-08-06T07:44:57;1.25;;;0.70;;
20557;SDS011;10437;48.156;11.530;2023-08-06T07:47:25;1.30;;;0.60;;
20557;SDS011;10437;48.156;11.530;2023-08-06T07:49:52;2.53;;;0.85;;
20557;SDS011;10437;48.156;11.530;2023-08-06T07:52:19;0.70;;;0.50;;
20557;SDS011;10437;48.156;11.530;2023-08-06T07:54:47;2.30;;;0.70;;
20557;SDS011;10437;48.156;11.530;2023-08-06T07:57:14;2.28;;;0.90;;
20557;SDS011;10437;48.156;11.530;2023-08-06T07:59:41;1.88;;;0.80;;
20557;SDS011;10437;48.156;11.530;2023-08-06T08:02:09;4.47;;;1.02;;
20557;SDS011;10437;48.156;11.530;2023-08-06T08:04:36;1.92;;;0.70;;
20557;SDS011;10437;48.156;11.530;2023-08-06T08:07:03;3.58;;;0.70;;
20557;SDS011;10437;48.156;11.530;2023-08-06T08:09:30;1.50;;;0.60;;
20557;SDS011;10437;48.156;11.530;2023-08-06T08:11:59;2.35;;;1.30;;
20557;SDS011;10437;48.156;11.530;2023-08-06T08:14:27;4.90;;;1.75;;
20557;SDS011;10437;48.156;11.530;2023-08-06T08:17:00;1.98;;;0.90;;
20557;SDS011;10437;48.156;11.530;2023-08-06T08:19:27;1.13;;;0.60;;
20557;SDS011;10437;48.156;11.530;2023-08-06T08:21:54;2.38;;;1.00;;
20557;SDS011;10437;48.156;11.530;2023-08-06T08:24:21;4.10;;;1.88;;
20557;SDS011;10437;48.156;11.530;2023-08-06T08:26:49;1.88;;;0.40;;
20557;SDS011;10437;48.156;11.530;2023-08-06T08:29:18;0.93;;;0.60;;
20557;SDS011;10437;48.156;11.530;2023-08-06T08:31:46;2.63;;;0.60;;
20557;SDS011;10437;48.156;11.530;2023-08-06T08:34:14;1.45;;;0.80;;
20557;SDS011;10437;48.156;11.530;2023-08-06T08:36:41;1.75;;;0.80;;
20557;SDS011;10437;48.156;11.530;2023-08-06T08:39:09;0.93;;;0.50;;
20557;SDS011;10437;48.156;11.530;2023-08-06T08:41:36;2.08;;;0.55;;
20557;SDS011;10437;48.156;11.530;2023-08-06T08:44:04;1.60;;;0.50;;
20557;SDS011;10437;48.156;11.530;2023-08-06T08:46:35;2.53;;;0.55;;
20557;SDS011;10437;48.156;11.530;2023-08-06T08:49:03;0.85;;;0.52;;
20557;SDS011;10437;48.156;11.530;2023-08-06T08:51:31;0.52;;;0.30;;
20557;SDS011;10437;48.156;11.530;2023-08-06T08:53:59;0.60;;;0.40;;
20557;SDS011;10437;48.156;11.530;2023-08-06T08:56:29;1.55;;;0.50;;
20557;SDS011;10437;48.156;11.530;2023-08-06T08:58:56;0.85;;;0.43;;
20557;SDS011;10437;48.156;11.530;2023-08-06T09:01:24;1.80;;;0.38;;
20557;SDS011;10437;48.156;11.530;2023-08-06T09:03:53;1.38;;;0.38;;
20557;SDS011;10437;48.156;11.530;2023-08-06T09:06:21;1.08;;;0.30;;
20557;SDS011;10437;48.156;11.530;2023-08-06T09:08:54;0.80;;;0.32;;
20557;SDS011;10437;48.156;11.530;2023-08-06T09:11:25;0.75;;;0.30;;
20557;SDS011;10437;48.156;11.530;2023-08-06T09:13:52;0.95;;;0.40;;
20557;SDS011;10437;48.156;11.530;2023-08-06T09:16:20;3.88;;;0.38;;
20557;SDS011;10437;48.156;11.530;2023-08-06T09:18:47;0.52;;;0.13;;
20557;SDS011;10437;48.156;11.530;2023-08-06T09:21:15;0.50;;;0.30;;
20557;SDS011;10437;48.156;11.530;2023-08-06T09:23:42;0.45;;;0.25;;
20557;SDS011;10437;48.156;11.530;2023-08-06T09:26:11;1.95;;;0.47;;
20557;SDS011;10437;48.156;11.530;2023-08-06T09:28:39;0.63;;;0.10;;
20557;SDS011;10437;48.156;11.530;2023-08-06T09:31:08;1.75;;;0.30;;
20557;SDS011;10437;48.156;11.530;2023-08-06T09:33:36;0.80;;;0.25;;
20557;SDS011;10437;48.156;11.530;2023-08-06T09:36:07;0.90;;;0.28;;
20557;SDS011;10437;48.156;11.530;2023-08-06T09:38:38;0.68;;;0.20;;
20557;SDS011;10437;48.156;11.530;2023-08-06T09:41:06;0.90;;;0.30;;
20557;SDS011;10437;48.156;11.530;2023-08-06T09:43:39;0.70;;;0.10;;
20557;SDS011;10437;48.156;11.530;2023-08-06T09:46:10;1.42;;;0.32;;
20557;SDS011;10437;48.156;11.530;2023-08-06T09:48:39;0.20;;;0.20;;
20557;SDS011;10437;48.156;11.530;2023-08-06T09:51:07;3.40;;;0.20;;
20557;SDS011;10437;48.156;11.530;2023-08-06T09:53:35;0.75;;;0.20;;
20557;SDS011;10437;48.156;11.530;2023-08-06T09:56:04;0.25;;;0.20;;
20557;SDS011;10437;48.156;11.530;2023-08-06T09:58:32;0.50;;;0.20;;
20557;SDS011;10437;48.156;11.530;2023-08-06T10:00:59;2.00;;;0.20;;
20557;SDS011;10437;48.156;11.530;2023-08-06T10:03:28;0.85;;;0.20;;
20557;SDS011;10437;48.156;11.530;2023-08-06T10:05:56;0.22;;;0.10;;
20557;SDS011;10437;48.156;11.530;2023-08-06T10:08:27;0.73;;;0.20;;
20557;SDS011;10437;48.156;11.530;2023-08-06T10:10:54;1.73;;;0.20;;
20557;SDS011;10437;48.156;11.530;2023-08-06T10:13:23;0.15;;;0.13;;
20557;SDS011;10437;48.156;11.530;2023-08-06T10:15:51;0.38;;;0.10;;
20557;SDS011;10437;48.156;11.530;2023-08-06T10:18:18;1.60;;;0.20;;
20557;SDS011;10437;48.156;11.530;2023-08-06T10:20:47;0.73;;;0.32;;
20557;SDS011;10437;48.156;11.530;2023-08-06T10:23:14;1.17;;;0.20;;
20557;SDS011;10437;48.156;11.530;2023-08-06T10:25:42;1.75;;;0.20;;
20557;SDS011;10437;48.156;11.530;2023-08-06T10:28:10;0.63;;;0.28;;
20557;SDS011;10437;48.156;11.530;2023-08-06T10:30:43;1.00;;;0.20;;
20557;SDS011;10437;48.156;11.530;2023-08-06T10:33:11;0.47;;;0.10;;
20557;SDS011;10437;48.156;11.530;2023-08-06T10:35:40;0.80;;;0.30;;
20557;SDS011;10437;48.156;11.530;2023-08-06T10:38:09;0.70;;;0.30;;
20557;SDS011;10437;48.156;11.530;2023-08-06T10:40:39;1.27;;;0.30;;
20557;SDS011;10437;48.156;11.530;2023-08-06T10:43:07;0.57;;;0.20;;
20557;SDS011;10437;48.156;11.530;2023-08-06T10:45:35;0.75;;;0.20;;
20557;SDS011;10437;48.156;11.530;2023-08-06T10:48:04;0.55;;;0.30;;
20557;SDS011;10437;48.156;11.530;2023-08-06T10:50:31;0.22;;;0.17;;
20557;SDS011;10437;48.156;11.530;2023-08-06T10:53:00;1.30;;;0.17;;
20557;SDS011;10437;48.156;11.530;2023-08-06T10:55:31;0.15;;;0.15;;
20557;SDS011;10437;48.156;11.530;2023-08-06T10:57:58;0.30;;;0.10;;
20557;SDS011;10437;48.156;11.530;2023-08-06T11:00:25;0.20;;;0.10;;
20557;SDS011;10437;48.156;11.530;2023-08-06T11:02:52;0.25;;;0.15;;
20557;SDS011;10437;48.156;11.530;2023-08-06T11:05:21;0.17;;;0.17;;
20557;SDS011;10437;48.156;11.530;2023-08-06T11:07:48;0.30;;;0.10;;
20557;SDS011;10437;48.156;11.530;2023-08-06T11:10:16;1.00;;;0.10;;
20557;SDS011;10437;48.156;11.530;2023-08-06T11:12:44;0.03;;;0.03;;
20557;SDS011;10437;48.156;11.530;2023-08-06T11:15:11;2.28;;;0.13;;
20557;SDS011;10437;48.156;11.530;2023-08-06T11:17:39;0.95;;;0.30;;
20557;SDS011;10437;48.156;11.530;2023-08-06T11:20:07;2.45;;;0.20;;
20557;SDS011;10437;48.156;11.530;2023-08-06T11:22:36;1.75;;;0.20;;
20557;SDS011;10437;48.156;11.530;2023-08-06T11:25:05;0.93;;;0.17;;
20557;SDS011;10437;48.156;11.530;2023-08-06T11:27:32;0.77;;;0.20;;
20557;SDS011;10437;48.156;11.530;2023-08-06T11:30:00;0.17;;;0.10;;
20557;SDS011;10437;48.156;11.530;2023-08-06T11:32:27;0.88;;;0.10;;
20557;SDS011;10437;48.156;11.530;2023-08-06T11:34:54;0.08;;;0.08;;
20557;SDS011;10437;48.156;11.530;2023-08-06T11:37:21;1.67;;;0.10;;
20557;SDS011;10437;48.156;11.530;2023-08-06T11:39:51;0.40;;;0.10;;
20557;SDS011;10437;48.156;11.530;2023-08-06T11:42:19;0.40;;;0.10;;
20557;SDS011;10437;48.156;11.530;2023-08-06T11:44:47;1.10;;;0.00;;
20557;SDS011;10437;48.156;11.530;2023-08-06T11:47:15;0.25;;;0.10;;
20557;SDS011;10437;48.156;11.530;2023-08-06T11:49:43;0.32;;;0.10;;
20557;SDS011;10437;48.156;11.530;2023-08-06T11:52:16;0.03;;;0.00;;
20557;SDS011;10437;48.156;11.530;2023-08-06T11:54:45;1.85;;;0.10;;
20557;SDS011;10437;48.156;11.530;2023-08-06T11:57:13;0.20;;;0.00;;
20557;SDS011;10437;48.156;11.530;2023-08-06T11:59:41;0.52;;;0.10;;
20557;SDS011;10437;48.156;11.530;2023-08-06T12:02:09;1.25;;;0.43;;
20557;SDS011;10437;48.156;11.530;2023-08-06T12:07:26;0.30;;;0.10;;
20557;SDS011;10437;48.156;11.530;2023-08-06T12:09:54;0.43;;;0.20;;
20557;SDS011;10437;48.156;11.530;2023-08-06T12:12:23;0.32;;;0.10;;
20557;SDS011;10437;48.156;11.530;2023-08-06T12:14:50;0.73;;;0.10;;
20557;SDS011;10437;48.156;11.530;2023-08-06T12:17:17;0.47;;;0.20;;
20557;SDS011;10437;48.156;11.530;2023-08-06T12:19:44;0.50;;;0.20;;
20557;SDS011;10437;48.156;11.530;2023-08-06T12:22:12;0.10;;;0.03;;
20557;SDS011;10437;48.156;11.530;2023-08-06T12:24:39;0.10;;;0.10;;
20557;SDS011;10437;48.156;11.530;2023-08-06T12:27:07;0.82;;;0.57;;
20557;SDS011;10437;48.156;11.530;2023-08-06T12:29:35;0.57;;;0.10;;
20557;SDS011;10437;48.156;11.530;2023-08-06T12:32:03;1.25;;;0.30;;
20557;SDS011;10437;48.156;11.530;2023-08-06T12:34:30;0.20;;;0.10;;
20557;SDS011;10437;48.156;11.530;2023-08-06T12:36:57;0.10;;;0.10;;
20557;SDS011;10437;48.156;11.530;2023-08-06T12:39:24;0.10;;;0.00;;
20557;SDS011;10437;48.156;11.530;2023-08-06T12:41:53;0.10;;;0.10;;
20557;SDS011;10437;48.156;11.530;2023-08-06T12:44:22;1.02;;;0.08;;
20557;SDS011;10437;48.156;11.530;2023-08-06T12:46:50;0.00;;;0.00;;
20557;SDS011;10437;48.156;11.530;2023-08-06T12:49:17;0.30;;;0.20;;
20557;SDS011;10437;48.156;11.530;2023-08-06T12:51:46;0.35;;;0.10;;
20557;SDS011;10437;48.156;11.530;2023-08-06T12:54:13;0.90;;;0.20;;
20557;SDS011;10437;48.156;11.530;2023-08-06T12:56:40;0.55;;;0.20;;
20557;SDS011;10437;48.156;11.530;2023-08-06T12:59:07;0.20;;;0.10;;
20557;SDS011;10437;48.156;11.530;2023-08-06T13:01:34;0.47;;;0.17;;
20557;SDS011;10437;48.156;11.530;2023-08-06T13:04:03;0.13;;;0.00;;
20557;SDS011;10437;48.156;11.530;2023-08-06T13:06:30;0.63;;;0.20;;
20557;SDS011;10437;48.156;11.530;2023-08-06T13:09:01;0.15;;;0.05;;
20557;SDS011;10437;48.156;11.530;2023-08-06T13:11:28;1.02;;;0.10;;
20557;SDS011;10437;48.156;11.530;2023-08-06T13:13:56;0.22;;;0.10;;
20557;SDS011;10437;48.156;11.530;2023-08-06T13:16:25;0.17;;;0.10;;
20557;SDS011;10437;48.156;11.530;2023-08-06T13:18:53;0.73;;;0.10;;
20557;SDS011;10437;48.156;11.530;2023-08-06T13:21:21;0.30;;;0.10;;
20557;SDS011;10437;48.156;11.530;2023-08-06T13:23:48;1.15;;;0.15;;
20557;SDS011;10437;48.156;11.530;2023-08-06T13:26:15;0.90;;;0.10;;
20557;SDS011;10437;48.156;11.530;2023-08-06T13:28:42;0.70;;;0.30;;
20557;SDS011;10437;48.156;11.530;2023-08-06T13:31:10;0.10;;;0.10;;
20557;SDS011;10437;48.156;11.530;2023-08-06T13:33:37;0.73;;;0.10;;
20557;SDS011;10437;48.156;11.530;2023-08-06T13:36:04;0.20;;;0.20;;
20557;SDS011;10437;48.156;11.530;2023-08-06T13:38:32;0.10;;;0.10;;
20557;SDS011;10437;48.156;11.530;2023-08-06T13:41:00;0.05;;;0.03;;
20557;SDS011;10437;48.156;11.530;2023-08-06T13:43:28;0.10;;;0.10;;
20557;SDS011;10437;48.156;11.530;2023-08-06T13:45:55;0.95;;;0.20;;
20557;SDS011;10437;48.156;11.530;2023-08-06T13:48:22;0.20;;;0.08;;
20557;SDS011;10437;48.156;11.530;2023-08-06T13:50:49;0.43;;;0.15;;
20557;SDS011;10437;48.156;11.530;2023-08-06T13:53:16;0.10;;;0.10;;
20557;SDS011;10437;48.156;11.530;2023-08-06T13:55:45;0.77;;;0.20;;
20557;SDS011;10437;48.156;11.530;2023-08-06T13:58:12;3.00;;;0.63;;
20557;SDS011;10437;48.156;11.530;2023-08-06T14:00:39;0.10;;;0.10;;
20557;SDS011;10437;48.156;11.530;2023-08-06T14:03:06;0.20;;;0.10;;
20557;SDS011;10437;48.156;11.530;2023-08-06T14:05:34;0.00;;;0.00;;
20557;SDS011;10437;48.156;11.530;2023-08-06T14:08:01;0.52;;;0.20;;
20557;SDS011;10437;48.156;11.530;2023-08-06T14:10:28;0.20;;;0.10;;
20557;SDS011;10437;48.156;11.530;2023-08-06T14:12:57;0.40;;;0.20;;
20557;SDS011;10437;48.156;11.530;2023-08-06T14:15:23;3.05;;;0.20;;
20557;SDS011;10437;48.156;11.530;2023-08-06T14:17:51;1.85;;;0.77;;
20557;SDS011;10437;48.156;11.530;2023-08-06T14:20:18;0.20;;;0.10;;
20557;SDS011;10437;48.156;11.530;2023-08-06T14:22:45;0.28;;;0.17;;
20557;SDS011;10437;48.156;11.530;2023-08-06T14:25:12;0.45;;;0.20;;
20557;SDS011;10437;48.156;11.530;2023-08-06T14:27:39;0.30;;;0.20;;
20557;SDS011;10437;48.156;11.530;2023-08-06T14:30:08;0.68;;;0.05;;
20557;SDS011;10437;48.156;11.530;2023-08-06T14:32:36;0.20;;;0.20;;
20557;SDS011;10437;48.156;11.530;2023-08-06T14:35:03;0.63;;;0.13;;
20557;SDS011;10437;48.156;11.530;2023-08-06T14:37:31;0.30;;;0.17;;
20557;SDS011;10437;48.156;11.530;2023-08-06T14:39:58;0.30;;;0.20;;